sensor_id;sensor_type;location;lat;lon;timestamp;P1;durP1;ratioP1;P2;durP2;ratioP2
50695;SDS011;36665;51.786;21.594;2023-08-21T00:04:41;19.60;;;15.90;;
50695;SDS011;36665;51.786;21.594;2023-08-21T00:13:02;17.80;;;15.90;;
50695;SDS011;36665;51.786;21.594;2023-08-21T00:21:24;19.00;;;15.80;;
50695;SDS011;36665;51.786;21.594;2023-08-21T00:29:46;17.60;;;15.00;;
50695;SDS011;36665;51.786;21.594;2023-08-21T00:38:08;17.10;;;15.30;;
50695;SDS011;36665;51.786;21.594;2023-08-21T00:46:31;23.70;;;14.40;;
50695;SDS011;36665;51.786;21.594;2023-08-21T00:54:53;18.20;;;15.20;;
50695;SDS011;36665;51.786;21.594;2023-08-21T01:03:15;18.80;;;15.00;;
50695;SDS011;36665;51.786;21.594;2023-08-21T01:20:35;19.60;;;15.00;;
50695;SDS011;36665;51.786;21.594;2023-08-21T01:28:57;15.80;;;14.20;;
50695;SDS011;36665;51.786;21.594;2023-08-21T01:37:19;17.40;;;15.00;;
50695;SDS011;36665;51.786;21.594;2023-08-21T01:45:44;24.30;;;16.10;;
50695;SDS011;36665;51.786;21.594;2023-08-21T01:54:06;19.60;;;14.70;;
50695;SDS011;36665;51.786;21.594;2023-08-21T02:02:27;17.00;;;14.70;;
50695;SDS011;36665;51.786;21.594;2023-08-21T02:10:49;19.40;;;14.90;;
50695;SDS011;36665;51.786;21.594;2023-08-21T02:19:12;19.40;;;14.90;;
50695;SDS011;36665;51.786;21.594;2023-08-21T02:27:33;19.40;;;14.80;;
50695;SDS011;36665;51.786;21.594;2023-08-21T02:35:55;18.80;;;14.90;;
50695;SDS011;36665;51.786;21.594;2023-08-21T02:44:17;21.30;;;16.50;;
50695;SDS011;36665;51.786;21.594;2023-08-21T02:52:38;17.90;;;15.60;;
50695;SDS011;36665;51.786;21.594;2023-08-21T03:01:02;20.90;;;17.20;;
50695;SDS011;36665;51.786;21.594;2023-08-21T03:09:24;22.70;;;17.20;;
50695;SDS011;36665;51.786;21.594;2023-08-21T03:17:45;25.00;;;16.60;;
50695;SDS011;36665;51.786;21.594;2023-08-21T03:26:07;19.70;;;16.10;;
50695;SDS011;36665;51.786;21.594;2023-08-21T03:34:29;18.90;;;16.90;;
50695;SDS011;36665;51.786;21.594;2023-08-21T03:42:54;31.00;;;20.90;;
50695;SDS011;36665;51.786;21.594;2023-08-21T03:51:16;32.20;;;18.00;;
50695;SDS011;36665;51.786;21.594;2023-08-21T03:59:38;21.40;;;15.90;;
50695;SDS011;36665;51.786;21.594;2023-08-21T04:08:00;21.10;;;17.00;;
50695;SDS011;36665;51.786;21.594;2023-08-21T04:16:22;22.00;;;15.30;;
50695;SDS011;36665;51.786;21.594;2023-08-21T04:24:43;16.10;;;14.40;;
50695;SDS011;36665;51.786;21.594;2023-08-21T04:33:05;16.80;;;14.80;;
50695;SDS011;36665;51.786;21.594;2023-08-21T04:41:27;18.70;;;14.30;;
50695;SDS011;36665;51.786;21.594;2023-08-21T04:49:49;18.90;;;15.60;;
50695;SDS011;36665;51.786;21.594;2023-08-21T04:58:13;18.20;;;16.40;;
50695;SDS011;36665;51.786;21.594;2023-08-21T05:06:36;20.60;;;16.00;;
50695;SDS011;36665;51.786;21.594;2023-08-21T05:14:58;21.80;;;15.50;;
50695;SDS011;36665;51.786;21.594;2023-08-21T05:23:21;22.00;;;15.80;;
50695;SDS011;36665;51.786;21.594;2023-08-21T05:31:45;17.90;;;15.80;;
50695;SDS011;36665;51.786;21.594;2023-08-21T05:40:07;18.40;;;13.60;;
50695;SDS011;36665;51.786;21.594;2023-08-21T05:48:30;15.90;;;14.00;;
50695;SDS011;36665;51.786;21.594;2023-08-21T05:56:52;20.80;;;14.40;;
50695;SDS011;36665;51.786;21.594;2023-08-21T06:05:13;19.20;;;14.50;;
50695;SDS011;36665;51.786;21.594;2023-08-21T06:13:36;17.50;;;13.10;;
50695;SDS011;36665;51.786;21.594;2023-08-21T06:21:57;19.80;;;17.20;;
50695;SDS011;36665;51.786;21.594;2023-08-21T06:30:20;17.40;;;14.90;;
50695;SDS011;36665;51.786;21.594;2023-08-21T06:38:41;25.70;;;17.30;;
50695;SDS011;36665;51.786;21.594;2023-08-21T06:47:03;25.70;;;16.60;;
50695;SDS011;36665;51.786;21.594;2023-08-21T06:55:26;19.10;;;13.60;;
50695;SDS011;36665;51.786;21.594;2023-08-21T07:03:48;20.90;;;14.80;;
50695;SDS011;36665;51.786;21.594;2023-08-21T07:12:09;18.30;;;13.40;;
50695;SDS011;36665;51.786;21.594;2023-08-21T07:20:31;19.40;;;12.60;;
50695;SDS011;36665;51.786;21.594;2023-08-21T07:28:53;13.90;;;12.30;;
50695;SDS011;36665;51.786;21.594;2023-08-21T07:37:14;16.30;;;12.20;;
50695;SDS011;36665;51.786;21.594;2023-08-21T07:45:36;15.80;;;12.80;;
50695;SDS011;36665;51.786;21.594;2023-08-21T07:53:58;18.80;;;12.90;;
50695;SDS011;36665;51.786;21.594;2023-08-21T08:02:22;17.30;;;13.30;;
50695;SDS011;36665;51.786;21.594;2023-08-21T08:10:44;15.80;;;12.60;;
50695;SDS011;36665;51.786;21.594;2023-08-21T08:19:07;16.80;;;13.20;;
50695;SDS011;36665;51.786;21.594;2023-08-21T08:27:29;18.50;;;15.20;;
50695;SDS011;36665;51.786;21.594;2023-08-21T08:35:50;19.00;;;13.80;;
50695;SDS011;36665;51.786;21.594;2023-08-21T08:44:12;17.50;;;13.70;;
50695;SDS011;36665;51.786;21.594;2023-08-21T08:52:38;16.40;;;13.40;;
50695;SDS011;36665;51.786;21.594;2023-08-21T09:01:02;14.80;;;11.70;;
50695;SDS011;36665;51.786;21.594;2023-08-21T09:09:23;15.30;;;11.30;;
50695;SDS011;36665;51.786;21.594;2023-08-21T09:17:52;11.70;;;9.80;;
50695;SDS011;36665;51.786;21.594;2023-08-21T09:26:18;9.30;;;7.60;;
50695;SDS011;36665;51.786;21.594;2023-08-21T09:34:43;10.90;;;7.20;;
50695;SDS011;36665;51.786;21.594;2023-08-21T09:43:08;8.70;;;6.20;;
50695;SDS011;36665;51.786;21.594;2023-08-21T09:51:31;6.40;;;5.60;;
50695;SDS011;36665;51.786;21.594;2023-08-21T09:59:54;9.70;;;5.70;;
50695;SDS011;36665;51.786;21.594;2023-08-21T10:08:18;9.20;;;6.20;;
50695;SDS011;36665;51.786;21.594;2023-08-21T10:16:44;8.90;;;6.10;;
50695;SDS011;36665;51.786;21.594;2023-08-21T10:25:27;10.90;;;6.20;;
50695;SDS011;36665;51.786;21.594;2023-08-21T10:33:52;8.80;;;6.50;;
50695;SDS011;36665;51.786;21.594;2023-08-21T10:42:14;6.80;;;5.80;;
50695;SDS011;36665;51.786;21.594;2023-08-21T10:50:36;7.50;;;6.40;;
50695;SDS011;36665;51.786;21.594;2023-08-21T10:58:58;6.70;;;5.70;;
50695;SDS011;36665;51.786;21.594;2023-08-21T11:07:20;9.10;;;5.30;;
50695;SDS011;36665;51.786;21.594;2023-08-21T11:15:44;10.20;;;4.90;;
50695;SDS011;36665;51.786;21.594;2023-08-21T11:24:06;5.10;;;4.40;;
50695;SDS011;36665;51.786;21.594;2023-08-21T11:32:28;5.60;;;4.90;;
50695;SDS011;36665;51.786;21.594;2023-08-21T11:40:53;8.40;;;4.60;;
50695;SDS011;36665;51.786;21.594;2023-08-21T11:49:19;5.90;;;4.50;;
50695;SDS011;36665;51.786;21.594;2023-08-21T11:57:50;7.10;;;4.50;;
50695;SDS011;36665;51.786;21.594;2023-08-21T12:06:12;9.00;;;5.00;;
50695;SDS011;36665;51.786;21.594;2023-08-21T12:14:34;6.40;;;4.80;;
50695;SDS011;36665;51.786;21.594;2023-08-21T12:23:00;8.90;;;4.90;;
50695;SDS011;36665;51.786;21.594;2023-08-21T12:31:22;8.20;;;5.50;;
50695;SDS011;36665;51.786;21.594;2023-08-21T12:39:44;12.60;;;4.80;;
50695;SDS011;36665;51.786;21.594;2023-08-21T12:48:06;5.70;;;4.30;;
50695;SDS011;36665;51.786;21.594;2023-08-21T12:56:29;5.60;;;4.10;;
50695;SDS011;36665;51.786;21.594;2023-08-21T13:05:37;4.60;;;3.80;;
50695;SDS011;36665;51.786;21.594;2023-08-21T13:13:59;3.30;;;2.50;;
50695;SDS011;36665;51.786;21.594;2023-08-21T13:22:20;2.70;;;1.60;;
50695;SDS011;36665;51.786;21.594;2023-08-21T13:30:42;4.40;;;3.40;;
50695;SDS011;36665;51.786;21.594;2023-08-21T13:39:04;3.40;;;2.20;;
50695;SDS011;36665;51.786;21.594;2023-08-21T13:47:27;2.80;;;2.10;;
50695;SDS011;36665;51.786;21.594;2023-08-21T13:55:49;17.70;;;13.80;;
50695;SDS011;36665;51.786;21.594;2023-08-21T14:04:11;4.00;;;2.50;;
50695;SDS011;36665;51.786;21.594;2023-08-21T14:12:33;3.40;;;2.10;;
50695;SDS011;36665;51.786;21.594;2023-08-21T14:20:55;2.50;;;2.20;;
50695;SDS011;36665;51.786;21.594;2023-08-21T14:29:17;3.00;;;2.70;;
50695;SDS011;36665;51.786;21.594;2023-08-21T14:37:39;5.00;;;3.40;;
50695;SDS011;36665;51.786;21.594;2023-08-21T14:46:01;5.40;;;3.10;;
50695;SDS011;36665;51.786;21.594;2023-08-21T14:54:25;3.90;;;2.50;;
50695;SDS011;36665;51.786;21.594;2023-08-21T15:02:47;6.50;;;2.70;;
50695;SDS011;36665;51.786;21.594;2023-08-21T15:11:09;7.00;;;3.10;;
50695;SDS011;36665;51.786;21.594;2023-08-21T15:19:31;7.30;;;3.30;;
50695;SDS011;36665;51.786;21.594;2023-08-21T15:27:53;7.80;;;2.70;;
50695;SDS011;36665;51.786;21.594;2023-08-21T15:36:14;5.20;;;2.30;;
50695;SDS011;36665;51.786;21.594;2023-08-21T15:44:36;6.80;;;2.30;;
50695;SDS011;36665;51.786;21.594;2023-08-21T15:52:58;3.20;;;1.90;;
50695;SDS011;36665;51.786;21.594;2023-08-21T16:01:19;5.90;;;3.90;;
50695;SDS011;36665;51.786;21.594;2023-08-21T16:09:41;3.90;;;2.10;;
50695;SDS011;36665;51.786;21.594;2023-08-21T16:18:03;5.70;;;2.10;;
50695;SDS011;36665;51.786;21.594;2023-08-21T16:26:25;5.00;;;2.10;;
50695;SDS011;36665;51.786;21.594;2023-08-21T16:34:47;8.40;;;2.50;;
50695;SDS011;36665;51.786;21.594;2023-08-21T16:43:10;6.30;;;1.90;;
50695;SDS011;36665;51.786;21.594;2023-08-21T16:51:32;3.40;;;1.70;;
50695;SDS011;36665;51.786;21.594;2023-08-21T16:59:54;5.00;;;2.00;;
50695;SDS011;36665;51.786;21.594;2023-08-21T17:08:18;5.20;;;2.30;;
50695;SDS011;36665;51.786;21.594;2023-08-21T17:16:40;10.80;;;3.00;;
50695;SDS011;36665;51.786;21.594;2023-08-21T17:25:01;5.00;;;2.00;;
50695;SDS011;36665;51.786;21.594;2023-08-21T17:33:35;9.20;;;2.60;;
50695;SDS011;36665;51.786;21.594;2023-08-21T17:41:59;9.30;;;2.80;;
50695;SDS011;36665;51.786;21.594;2023-08-21T17:50:23;9.40;;;3.00;;
50695;SDS011;36665;51.786;21.594;2023-08-21T17:58:45;34.00;;;15.30;;
50695;SDS011;36665;51.786;21.594;2023-08-21T18:07:07;10.30;;;4.50;;
50695;SDS011;36665;51.786;21.594;2023-08-21T18:15:29;7.60;;;5.00;;
50695;SDS011;36665;51.786;21.594;2023-08-21T18:23:55;7.80;;;4.80;;
50695;SDS011;36665;51.786;21.594;2023-08-21T18:32:17;12.20;;;4.50;;
50695;SDS011;36665;51.786;21.594;2023-08-21T18:40:39;11.30;;;4.80;;
50695;SDS011;36665;51.786;21.594;2023-08-21T18:49:01;7.80;;;4.00;;
50695;SDS011;36665;51.786;21.594;2023-08-21T18:57:22;9.20;;;4.50;;
50695;SDS011;36665;51.786;21.594;2023-08-21T19:05:44;7.30;;;3.80;;
50695;SDS011;36665;51.786;21.594;2023-08-21T19:14:06;11.30;;;4.40;;
50695;SDS011;36665;51.786;21.594;2023-08-21T19:22:28;7.10;;;3.80;;
50695;SDS011;36665;51.786;21.594;2023-08-21T19:30:49;10.30;;;4.60;;
50695;SDS011;36665;51.786;21.594;2023-08-21T19:39:11;9.10;;;3.80;;
50695;SDS011;36665;51.786;21.594;2023-08-21T19:47:33;9.80;;;3.80;;
50695;SDS011;36665;51.786;21.594;2023-08-21T19:55:55;29.80;;;8.60;;
50695;SDS011;36665;51.786;21.594;2023-08-21T20:04:20;24.60;;;10.80;;
50695;SDS011;36665;51.786;21.594;2023-08-21T20:12:42;18.10;;;8.70;;
50695;SDS011;36665;51.786;21.594;2023-08-21T20:21:04;14.70;;;7.30;;
50695;SDS011;36665;51.786;21.594;2023-08-21T20:29:26;16.70;;;6.40;;
50695;SDS011;36665;51.786;21.594;2023-08-21T20:37:48;14.00;;;5.70;;
50695;SDS011;36665;51.786;21.594;2023-08-21T20:46:09;17.90;;;7.10;;
50695;SDS011;36665;51.786;21.594;2023-08-21T20:54:31;14.60;;;6.60;;
50695;SDS011;36665;51.786;21.594;2023-08-21T21:02:53;8.40;;;5.40;;
50695;SDS011;36665;51.786;21.594;2023-08-21T21:11:15;15.60;;;6.70;;
50695;SDS011;36665;51.786;21.594;2023-08-21T21:19:37;14.30;;;6.10;;
50695;SDS011;36665;51.786;21.594;2023-08-21T21:27:58;12.60;;;7.00;;
50695;SDS011;36665;51.786;21.594;2023-08-21T21:36:20;12.10;;;6.00;;
50695;SDS011;36665;51.786;21.594;2023-08-21T21:44:41;9.20;;;5.50;;
50695;SDS011;36665;51.786;21.594;2023-08-21T21:53:03;10.20;;;5.40;;
50695;SDS011;36665;51.786;21.594;2023-08-21T22:01:25;12.20;;;5.40;;
50695;SDS011;36665;51.786;21.594;2023-08-21T22:09:48;13.80;;;5.40;;
50695;SDS011;36665;51.786;21.594;2023-08-21T22:18:10;8.10;;;5.20;;
50695;SDS011;36665;51.786;21.594;2023-08-21T22:26:32;8.20;;;4.50;;
50695;SDS011;36665;51.786;21.594;2023-08-21T22:34:54;10.00;;;5.10;;
50695;SDS011;36665;51.786;21.594;2023-08-21T22:43:16;9.30;;;5.20;;
50695;SDS011;36665;51.786;21.594;2023-08-21T22:51:38;8.80;;;5.40;;
50695;SDS011;36665;51.786;21.594;2023-08-21T22:59:59;13.40;;;5.80;;
50695;SDS011;36665;51.786;21.594;2023-08-21T23:08:24;15.40;;;6.20;;
50695;SDS011;36665;51.786;21.594;2023-08-21T23:16:46;8.40;;;5.20;;
50695;SDS011;36665;51.786;21.594;2023-08-21T23:25:08;10.80;;;5.90;;
50695;SDS011;36665;51.786;21.594;2023-08-21T23:33:30;25.60;;;10.50;;
50695;SDS011;36665;51.786;21.594;2023-08-21T23:41:52;16.20;;;7.40;;
50695;SDS011;36665;51.786;21.594;2023-08-21T23:50:14;13.90;;;6.40;;
50695;SDS011;36665;51.786;21.594;2023-08-21T23:58:36;9.30;;;6.20;;
